Time;durP1;ratioP1;P1;durP2;ratioP2;P2;SDS_P1;SDS_P2;PMS_P1;PMS_P2;Temp;Humidity;BMP_temperature;BMP_pressure;BME280_temperature;BME280_humidity;BME280_pressure;Samples;Min_cycle;Max_cycle;Signal;HPM_P1;HPM_P2
2023/09/07 00:00:17;;;;;;;8.63;2.90;;;;;;;;;;4988309;28;20489;-57
2023/09/07 00:02:42;;;;;;;6.83;2.80;;;;;;;;;;4990348;28;20501;-57
2023/09/07 00:05:08;;;;;;;6.60;3.03;;;;;;;;;;4990783;28;21091;-57
2023/09/07 00:07:33;;;;;;;7.63;2.90;;;;;;;;;;4990865;28;20402;-57
2023/09/07 00:09:59;;;;;;;5.57;2.63;;;;;;;;;;4987986;28;20403;-57
2023/09/07 00:12:24;;;;;;;6.13;2.65;;;;;;;;;;4987698;28;20385;-57
2023/09/07 00:14:50;;;;;;;6.90;2.90;;;;;;;;;;4984036;28;20490;-57
2023/09/07 00:17:15;;;;;;;5.63;2.83;;;;;;;;;;4984985;28;20453;-57
2023/09/07 00:19:41;;;;;;;5.67;2.87;;;;;;;;;;4995020;28;20452;-57
2023/09/07 00:22:06;;;;;;;4.47;2.73;;;;;;;;;;4993635;28;20439;-57
2023/09/07 00:24:31;;;;;;;5.00;2.80;;;;;;;;;;4991380;28;20403;-57
2023/09/07 00:26:57;;;;;;;5.47;2.80;;;;;;;;;;4990221;28;20419;-57
2023/09/07 00:29:22;;;;;;;7.20;3.13;;;;;;;;;;4992983;28;20402;-57
2023/09/07 00:31:47;;;;;;;7.77;2.93;;;;;;;;;;4990902;28;20411;-57
2023/09/07 00:34:13;;;;;;;5.60;2.80;;;;;;;;;;4982931;28;20522;-57
2023/09/07 00:36:38;;;;;;;6.07;2.90;;;;;;;;;;5014696;28;20465;-57
2023/09/07 00:39:03;;;;;;;6.50;2.90;;;;;;;;;;5024738;28;20528;-57
2023/09/07 00:41:29;;;;;;;6.00;2.90;;;;;;;;;;5024863;28;20403;-57
2023/09/07 00:43:54;;;;;;;5.73;2.93;;;;;;;;;;5021485;28;20411;-57
2023/09/07 00:46:20;;;;;;;5.10;2.63;;;;;;;;;;5020986;28;21695;-57
2023/09/07 00:48:46;;;;;;;7.22;3.00;;;;;;;;;;5025542;28;20411;-57
2023/09/07 00:51:11;;;;;;;6.63;3.10;;;;;;;;;;5020368;28;20415;-57
2023/09/07 00:53:36;;;;;;;6.67;3.10;;;;;;;;;;5018876;28;20407;-57
2023/09/07 00:56:01;;;;;;;5.40;2.93;;;;;;;;;;5024869;28;20446;-57
2023/09/07 00:58:27;;;;;;;5.67;3.17;;;;;;;;;;5025387;28;20410;-57
2023/09/07 01:00:52;;;;;;;7.07;2.80;;;;;;;;;;5019109;28;20413;-57
2023/09/07 01:03:17;;;;;;;7.47;3.10;;;;;;;;;;5023910;28;20906;-57
2023/09/07 01:05:53;;;;;;;6.63;3.00;;;;;;;;;;5025217;28;20490;-58
2023/09/07 01:08:23;;;;;;;8.43;3.00;;;;;;;;;;5020747;28;20411;-57
2023/09/07 01:10:48;;;;;;;6.18;2.83;;;;;;;;;;5020700;28;20401;-57
2023/09/07 01:13:14;;;;;;;8.83;3.13;;;;;;;;;;5024865;28;20438;-57
2023/09/07 01:15:39;;;;;;;7.03;3.00;;;;;;;;;;5022946;28;20481;-57
2023/09/07 01:18:04;;;;;;;6.00;2.93;;;;;;;;;;5020290;28;20551;-58
2023/09/07 01:20:30;;;;;;;8.93;3.00;;;;;;;;;;5022964;28;20413;-57
2023/09/07 01:22:55;;;;;;;5.17;3.07;;;;;;;;;;5017552;28;20407;-57
2023/09/07 01:25:20;;;;;;;5.73;2.90;;;;;;;;;;4984598;28;20386;-57
2023/09/07 01:27:46;;;;;;;7.17;3.23;;;;;;;;;;4986882;28;20422;-58
2023/09/07 01:30:11;;;;;;;5.90;3.13;;;;;;;;;;4987249;28;20454;-57
2023/09/07 01:32:36;;;;;;;5.35;2.83;;;;;;;;;;4991313;28;21120;-57
2023/09/07 01:35:02;;;;;;;8.23;3.10;;;;;;;;;;4992798;28;20414;-59
2023/09/07 01:37:27;;;;;;;5.40;3.20;;;;;;;;;;4986916;28;20422;-58
2023/09/07 01:39:52;;;;;;;6.10;3.13;;;;;;;;;;4989293;28;20407;-57
2023/09/07 01:42:17;;;;;;;7.18;2.80;;;;;;;;;;4993057;28;20461;-58
2023/09/07 01:44:43;;;;;;;5.85;3.53;;;;;;;;;;4986454;28;21055;-57
2023/09/07 01:47:08;;;;;;;6.60;2.90;;;;;;;;;;4981414;28;20506;-58
2023/09/07 01:49:33;;;;;;;6.10;3.28;;;;;;;;;;4985473;28;20615;-57
2023/09/07 01:51:59;;;;;;;5.50;3.13;;;;;;;;;;4989878;28;20999;-57
2023/09/07 01:54:24;;;;;;;6.53;3.30;;;;;;;;;;4988666;28;20397;-58
2023/09/07 01:56:50;;;;;;;5.73;3.27;;;;;;;;;;4987858;28;21375;-58
2023/09/07 01:59:15;;;;;;;7.47;3.20;;;;;;;;;;4992780;28;20805;-58
2023/09/07 02:01:41;;;;;;;6.23;3.13;;;;;;;;;;4990200;28;20422;-58
2023/09/07 02:04:06;;;;;;;7.18;3.50;;;;;;;;;;4988046;28;20489;-58
2023/09/07 02:06:31;;;;;;;5.78;3.30;;;;;;;;;;4988652;28;20921;-57
2023/09/07 02:08:57;;;;;;;5.53;3.28;;;;;;;;;;4976828;28;20462;-58
2023/09/07 02:11:22;;;;;;;5.40;3.30;;;;;;;;;;4973509;28;21275;-58
2023/09/07 02:13:47;;;;;;;6.27;3.10;;;;;;;;;;4989596;28;20702;-58
2023/09/07 02:16:13;;;;;;;7.50;3.30;;;;;;;;;;4985819;28;20538;-58
2023/09/07 02:18:43;;;;;;;6.30;3.07;;;;;;;;;;4989784;28;20402;-58
2023/09/07 02:21:08;;;;;;;5.65;3.30;;;;;;;;;;4992896;28;20450;-58
2023/09/07 02:23:33;;;;;;;6.20;2.90;;;;;;;;;;4987746;28;20460;-58
2023/09/07 02:25:59;;;;;;;6.70;3.20;;;;;;;;;;4988862;28;20394;-57
2023/09/07 02:28:24;;;;;;;6.60;3.10;;;;;;;;;;4988003;28;20514;-58
2023/09/07 02:30:50;;;;;;;6.37;3.10;;;;;;;;;;4982245;28;20402;-58
2023/09/07 02:33:15;;;;;;;6.03;3.42;;;;;;;;;;4978739;28;21092;-58
2023/09/07 02:35:41;;;;;;;7.10;3.65;;;;;;;;;;4983681;28;20417;-58
2023/09/07 02:38:06;;;;;;;5.97;3.65;;;;;;;;;;4990377;28;20506;-58
2023/09/07 02:40:31;;;;;;;5.40;3.60;;;;;;;;;;4987861;28;20488;-58
2023/09/07 02:42:56;;;;;;;5.60;3.35;;;;;;;;;;4987908;28;21000;-58
2023/09/07 02:45:22;;;;;;;4.50;3.20;;;;;;;;;;4992089;28;21182;-58
2023/09/07 02:47:50;;;;;;;5.68;3.22;;;;;;;;;;4980484;28;20786;-57
2023/09/07 02:50:17;;;;;;;6.05;3.50;;;;;;;;;;4994732;28;20454;-58
2023/09/07 02:52:42;;;;;;;6.43;3.40;;;;;;;;;;4980847;28;20398;-58
2023/09/07 02:55:08;;;;;;;9.17;3.30;;;;;;;;;;4982482;28;20415;-58
2023/09/07 02:57:34;;;;;;;6.50;3.10;;;;;;;;;;4981888;28;20418;-58
2023/09/07 02:59:59;;;;;;;5.50;3.60;;;;;;;;;;4987266;28;20526;-58
2023/09/07 03:02:25;;;;;;;6.83;3.63;;;;;;;;;;4990193;28;20410;-58
2023/09/07 03:04:58;;;;;;;7.05;3.30;;;;;;;;;;4991599;28;20422;-58
2023/09/07 03:07:23;;;;;;;5.65;3.30;;;;;;;;;;4985969;28;20429;-58
2023/09/07 03:09:49;;;;;;;6.30;3.20;;;;;;;;;;4988786;28;20399;-58
2023/09/07 03:12:14;;;;;;;6.20;3.20;;;;;;;;;;4988722;28;20446;-58
2023/09/07 03:14:42;;;;;;;10.50;3.47;;;;;;;;;;4982954;28;21133;-58
2023/09/07 03:17:07;;;;;;;6.80;3.23;;;;;;;;;;4979230;28;20503;-58
2023/09/07 03:19:33;;;;;;;6.33;3.00;;;;;;;;;;4982510;28;20864;-58
2023/09/07 03:21:58;;;;;;;8.60;3.00;;;;;;;;;;4987999;28;20418;-57
2023/09/07 03:24:23;;;;;;;6.20;2.90;;;;;;;;;;4987906;28;20416;-58
2023/09/07 03:26:49;;;;;;;5.97;2.97;;;;;;;;;;4988536;28;20560;-58
2023/09/07 03:29:14;;;;;;;6.15;3.00;;;;;;;;;;4992332;28;20408;-58
2023/09/07 03:31:39;;;;;;;6.65;3.20;;;;;;;;;;4989498;28;20528;-57
2023/09/07 03:34:05;;;;;;;6.05;3.10;;;;;;;;;;4988076;28;20885;-58
2023/09/07 03:36:31;;;;;;;4.30;2.90;;;;;;;;;;4987261;28;20418;-57
2023/09/07 03:38:56;;;;;;;6.78;3.13;;;;;;;;;;4981031;28;20400;-58
2023/09/07 03:41:21;;;;;;;6.20;2.90;;;;;;;;;;4983971;28;20399;-58
2023/09/07 03:43:47;;;;;;;7.25;3.08;;;;;;;;;;4989518;28;20932;-58
2023/09/07 03:46:12;;;;;;;7.70;3.33;;;;;;;;;;4994567;28;20952;-58
2023/09/07 03:48:37;;;;;;;6.37;3.00;;;;;;;;;;4991065;28;20537;-57
2023/09/07 03:51:08;;;;;;;7.00;3.47;;;;;;;;;;4992221;28;20415;-58
2023/09/07 03:53:34;;;;;;;6.22;3.15;;;;;;;;;;4996331;28;20410;-58
2023/09/07 03:56:01;;;;;;;5.07;3.00;;;;;;;;;;4989655;28;20426;-57
2023/09/07 03:58:26;;;;;;;7.13;3.03;;;;;;;;;;5011582;28;20483;-58
2023/09/07 04:00:52;;;;;;;6.70;3.10;;;;;;;;;;5005298;28;20499;-57
2023/09/07 04:03:17;;;;;;;5.50;3.17;;;;;;;;;;5003191;28;20811;-58
2023/09/07 04:05:44;;;;;;;6.53;3.17;;;;;;;;;;5003638;28;21354;-58
2023/09/07 04:08:09;;;;;;;5.90;2.90;;;;;;;;;;5010863;28;20400;-58
2023/09/07 04:10:36;;;;;;;8.03;3.80;;;;;;;;;;5014165;28;20417;-57
2023/09/07 04:13:02;;;;;;;6.63;3.13;;;;;;;;;;5011650;28;20951;-58
2023/09/07 04:15:28;;;;;;;9.70;3.67;;;;;;;;;;4999523;28;20406;-58
2023/09/07 04:17:54;;;;;;;5.38;3.60;;;;;;;;;;4994753;28;20422;-57
2023/09/07 04:20:20;;;;;;;7.68;3.83;;;;;;;;;;4997037;28;20501;-58
2023/09/07 04:22:45;;;;;;;12.53;3.40;;;;;;;;;;4984325;28;20411;-58
2023/09/07 04:25:10;;;;;;;5.20;3.30;;;;;;;;;;4983065;28;20395;-58
2023/09/07 04:27:35;;;;;;;4.90;3.40;;;;;;;;;;4987260;28;20489;-57
2023/09/07 04:30:01;;;;;;;5.97;3.53;;;;;;;;;;4989089;28;20518;-58
2023/09/07 04:32:26;;;;;;;7.63;3.57;;;;;;;;;;4990961;28;20394;-57
2023/09/07 04:34:55;;;;;;;6.50;3.70;;;;;;;;;;4994073;28;20415;-57
2023/09/07 04:37:20;;;;;;;6.93;3.60;;;;;;;;;;4997832;28;20402;-58
2023/09/07 04:39:47;;;;;;;7.20;3.47;;;;;;;;;;4988830;28;20419;-57
2023/09/07 04:42:12;;;;;;;5.82;3.53;;;;;;;;;;5003362;28;20467;-58
2023/09/07 04:44:38;;;;;;;6.13;3.30;;;;;;;;;;5001616;28;20438;-58
2023/09/07 04:47:03;;;;;;;8.73;4.80;;;;;;;;;;4994104;28;20488;-58
2023/09/07 04:49:28;;;;;;;8.57;4.23;;;;;;;;;;4995495;28;20403;-58
2023/09/07 04:51:54;;;;;;;6.93;4.00;;;;;;;;;;5001449;28;20410;-58
2023/09/07 04:54:19;;;;;;;6.38;4.00;;;;;;;;;;5001473;28;20948;-57
2023/09/07 04:56:45;;;;;;;6.73;4.73;;;;;;;;;;5001592;28;20423;-57
2023/09/07 04:59:10;;;;;;;6.80;3.97;;;;;;;;;;5021185;28;21187;-58
2023/09/07 05:01:35;;;;;;;6.70;4.47;;;;;;;;;;5015808;28;20403;-57
2023/09/07 05:04:03;;;;;;;5.60;3.60;;;;;;;;;;5033220;28;20412;-58
2023/09/07 05:06:28;;;;;;;7.03;4.40;;;;;;;;;;5033694;28;20405;-57
2023/09/07 05:08:54;;;;;;;8.37;4.60;;;;;;;;;;5033655;28;20411;-57
2023/09/07 05:11:19;;;;;;;6.87;4.80;;;;;;;;;;5033645;28;20421;-57
2023/09/07 05:13:44;;;;;;;6.40;4.23;;;;;;;;;;5025730;28;20456;-57
2023/09/07 05:16:10;;;;;;;6.97;3.95;;;;;;;;;;5017370;28;20423;-57
2023/09/07 05:18:35;;;;;;;7.88;4.07;;;;;;;;;;5012134;28;20421;-57
2023/09/07 05:21:00;;;;;;;6.40;3.75;;;;;;;;;;5013948;28;21007;-57
2023/09/07 05:23:26;;;;;;;7.90;5.10;;;;;;;;;;5028997;28;20461;-58
2023/09/07 05:25:52;;;;;;;7.10;4.32;;;;;;;;;;5024208;28;20546;-58
2023/09/07 05:28:17;;;;;;;9.85;4.78;;;;;;;;;;5020059;28;21196;-58
2023/09/07 05:30:43;;;;;;;6.50;4.00;;;;;;;;;;5026024;28;20486;-58
2023/09/07 05:33:09;;;;;;;10.70;5.47;;;;;;;;;;5022079;28;20410;-58
2023/09/07 05:35:34;;;;;;;8.85;4.43;;;;;;;;;;5028047;28;21365;-58
2023/09/07 05:37:59;;;;;;;6.47;4.27;;;;;;;;;;5022437;28;20455;-58
2023/09/07 05:40:25;;;;;;;5.77;3.83;;;;;;;;;;5015584;28;20500;-58
2023/09/07 05:42:50;;;;;;;5.67;4.10;;;;;;;;;;5011928;28;20407;-58
2023/09/07 05:45:15;;;;;;;7.40;4.57;;;;;;;;;;5013038;28;20410;-58
2023/09/07 05:47:40;;;;;;;6.77;3.90;;;;;;;;;;5016221;28;20397;-58
2023/09/07 05:50:06;;;;;;;7.10;4.47;;;;;;;;;;5019001;28;20490;-58
2023/09/07 05:52:31;;;;;;;5.90;4.07;;;;;;;;;;5017640;28;20397;-58
2023/09/07 05:54:56;;;;;;;7.70;4.03;;;;;;;;;;5025971;28;20395;-58
2023/09/07 05:57:22;;;;;;;6.77;4.17;;;;;;;;;;5013318;28;20423;-58
2023/09/07 05:59:47;;;;;;;6.40;4.30;;;;;;;;;;4999268;28;20403;-58
2023/09/07 06:02:12;;;;;;;7.07;4.20;;;;;;;;;;5007875;28;20416;-58
2023/09/07 06:04:38;;;;;;;7.57;4.13;;;;;;;;;;5012869;28;20495;-58
2023/09/07 06:07:03;;;;;;;6.53;4.03;;;;;;;;;;5013403;28;20409;-58
2023/09/07 06:09:29;;;;;;;7.20;3.73;;;;;;;;;;5023772;28;20423;-58
2023/09/07 06:11:54;;;;;;;7.63;4.20;;;;;;;;;;5022508;28;20394;-58
2023/09/07 06:14:19;;;;;;;9.80;4.33;;;;;;;;;;5019082;28;20376;-58
2023/09/07 06:16:45;;;;;;;7.87;3.93;;;;;;;;;;5022852;28;20426;-58
2023/09/07 06:19:10;;;;;;;6.93;4.23;;;;;;;;;;5022853;28;20465;-58
2023/09/07 06:21:35;;;;;;;7.50;4.67;;;;;;;;;;5029862;28;20387;-58
2023/09/07 06:24:00;;;;;;;7.23;4.20;;;;;;;;;;5036094;28;20772;-61
2023/09/07 06:26:26;;;;;;;6.63;4.50;;;;;;;;;;5031917;28;20406;-58
2023/09/07 06:28:51;;;;;;;10.67;4.70;;;;;;;;;;5031198;28;20509;-58
2023/09/07 06:31:16;;;;;;;6.50;4.67;;;;;;;;;;5028228;28;20405;-58
2023/09/07 06:33:41;;;;;;;6.93;4.50;;;;;;;;;;5034159;28;20389;-58
2023/09/07 06:36:07;;;;;;;5.95;4.05;;;;;;;;;;5034071;28;20416;-58
2023/09/07 06:38:32;;;;;;;8.30;4.60;;;;;;;;;;5027012;28;20427;-58
2023/09/07 06:40:57;;;;;;;7.77;4.60;;;;;;;;;;5030837;28;21103;-58
2023/09/07 06:43:22;;;;;;;7.37;4.70;;;;;;;;;;5030196;28;20478;-58
2023/09/07 06:45:48;;;;;;;7.17;4.57;;;;;;;;;;5016498;28;20937;-58
2023/09/07 06:48:13;;;;;;;8.17;4.53;;;;;;;;;;5027199;28;20393;-58
2023/09/07 06:50:39;;;;;;;8.77;4.30;;;;;;;;;;5028959;28;20414;-58
2023/09/07 06:53:04;;;;;;;7.43;4.60;;;;;;;;;;5030993;28;20412;-58
2023/09/07 06:55:30;;;;;;;7.87;4.70;;;;;;;;;;5033049;28;20406;-58
2023/09/07 06:57:55;;;;;;;8.37;4.60;;;;;;;;;;5030871;28;20543;-58
2023/09/07 07:00:21;;;;;;;6.63;4.90;;;;;;;;;;5029979;28;20541;-57
2023/09/07 07:02:46;;;;;;;8.47;4.80;;;;;;;;;;5031272;28;20967;-57
2023/09/07 07:05:11;;;;;;;7.27;4.50;;;;;;;;;;5027806;28;20411;-58
2023/09/07 07:07:37;;;;;;;8.93;4.97;;;;;;;;;;5022222;28;20410;-57
2023/09/07 07:10:03;;;;;;;8.80;5.10;;;;;;;;;;5022570;28;20413;-58
2023/09/07 07:12:28;;;;;;;6.40;4.70;;;;;;;;;;5025372;28;20406;-57
2023/09/07 07:14:55;;;;;;;7.37;5.00;;;;;;;;;;5028044;28;20886;-58
2023/09/07 07:17:20;;;;;;;7.60;4.70;;;;;;;;;;5024778;28;20413;-58
2023/09/07 07:19:45;;;;;;;8.23;5.10;;;;;;;;;;5029632;28;20436;-58
2023/09/07 07:22:10;;;;;;;7.37;4.83;;;;;;;;;;5027916;28;20409;-58
2023/09/07 07:24:36;;;;;;;10.77;5.07;;;;;;;;;;5025127;28;20479;-58
2023/09/07 07:27:03;;;;;;;8.57;4.93;;;;;;;;;;5017198;28;20943;-59
2023/09/07 07:29:28;;;;;;;9.03;4.83;;;;;;;;;;5021707;28;20423;-58
2023/09/07 07:31:54;;;;;;;9.20;5.67;;;;;;;;;;5030802;28;20941;-58
2023/09/07 07:34:19;;;;;;;7.63;4.93;;;;;;;;;;5034941;28;20918;-58
2023/09/07 07:36:44;;;;;;;8.50;5.20;;;;;;;;;;5033650;28;20424;-56
2023/09/07 07:39:09;;;;;;;7.97;5.30;;;;;;;;;;5033855;28;20402;-57
2023/09/07 07:41:35;;;;;;;9.67;5.47;;;;;;;;;;5023345;28;20407;-57
2023/09/07 07:44:01;;;;;;;7.13;5.10;;;;;;;;;;5033996;28;20402;-59
2023/09/07 07:46:26;;;;;;;7.97;5.10;;;;;;;;;;5020078;28;20407;-57
2023/09/07 07:48:52;;;;;;;8.00;5.00;;;;;;;;;;5023993;28;20495;-57
2023/09/07 07:51:17;;;;;;;9.17;5.27;;;;;;;;;;5025064;28;20405;-57
2023/09/07 07:53:42;;;;;;;10.03;5.47;;;;;;;;;;5023064;28;20426;-57
2023/09/07 07:56:14;;;;;;;7.23;4.93;;;;;;;;;;5023564;28;20500;-57
2023/09/07 07:58:40;;;;;;;8.80;5.00;;;;;;;;;;5025684;28;20808;-57
2023/09/07 08:01:12;;;;;;;8.83;5.13;;;;;;;;;;5033429;28;20399;-57
2023/09/07 08:03:37;;;;;;;6.70;4.95;;;;;;;;;;5032137;28;20444;-57
2023/09/07 08:06:03;;;;;;;7.07;5.10;;;;;;;;;;5037421;28;20444;-57
2023/09/07 08:08:28;;;;;;;10.50;5.30;;;;;;;;;;5034204;28;20878;-57
2023/09/07 08:10:53;;;;;;;7.73;5.33;;;;;;;;;;5026384;28;20926;-57
2023/09/07 08:13:19;;;;;;;7.60;4.83;;;;;;;;;;5013930;28;20410;-57
2023/09/07 08:15:47;;;;;;;10.48;5.70;;;;;;;;;;5022542;28;20831;-57
2023/09/07 08:18:12;;;;;;;9.85;5.30;;;;;;;;;;5025331;28;20415;-57
2023/09/07 08:20:40;;;;;;;7.13;5.10;;;;;;;;;;5037697;28;20458;-57
2023/09/07 08:23:08;;;;;;;6.43;4.70;;;;;;;;;;5034452;28;20977;-57
2023/09/07 08:25:33;;;;;;;7.00;4.78;;;;;;;;;;5029834;28;20395;-57
2023/09/07 08:27:59;;;;;;;8.43;5.07;;;;;;;;;;5033656;28;20417;-57
2023/09/07 08:30:25;;;;;;;8.55;5.45;;;;;;;;;;5033162;28;20382;-57
2023/09/07 08:32:51;;;;;;;8.15;5.60;;;;;;;;;;5030708;28;20403;-57
2023/09/07 08:35:17;;;;;;;6.97;4.87;;;;;;;;;;5034431;28;20433;-57
2023/09/07 08:37:42;;;;;;;6.85;4.70;;;;;;;;;;5033466;28;20417;-57
2023/09/07 08:40:08;;;;;;;9.33;5.17;;;;;;;;;;5030835;28;20902;-57
2023/09/07 08:42:39;;;;;;;6.90;5.03;;;;;;;;;;5035634;28;20405;-58
2023/09/07 08:45:06;;;;;;;9.50;5.40;;;;;;;;;;5018077;28;20466;-57
2023/09/07 08:47:33;;;;;;;7.20;5.30;;;;;;;;;;5035735;28;20394;-57
2023/09/07 08:49:58;;;;;;;8.63;5.72;;;;;;;;;;5024671;28;20571;-57
2023/09/07 08:52:23;;;;;;;7.90;5.60;;;;;;;;;;5021873;28;20486;-57
2023/09/07 08:54:49;;;;;;;9.48;5.80;;;;;;;;;;5025449;28;20431;-57
2023/09/07 08:57:14;;;;;;;7.90;5.53;;;;;;;;;;5018838;28;20407;-57
2023/09/07 08:59:39;;;;;;;8.02;5.35;;;;;;;;;;5023629;28;20427;-57
2023/09/07 09:02:07;;;;;;;7.20;5.10;;;;;;;;;;5024332;28;20846;-57
2023/09/07 09:04:32;;;;;;;7.40;5.40;;;;;;;;;;5023012;28;20402;-57
2023/09/07 09:06:58;;;;;;;8.47;5.10;;;;;;;;;;5021647;28;20768;-57
2023/09/07 09:09:24;;;;;;;7.85;5.10;;;;;;;;;;5024416;28;20737;-57
2023/09/07 09:11:49;;;;;;;7.90;5.50;;;;;;;;;;5025067;28;20905;-57
2023/09/07 09:14:16;;;;;;;8.93;5.20;;;;;;;;;;5018967;28;20490;-57
2023/09/07 09:16:43;;;;;;;9.88;5.28;;;;;;;;;;5024409;28;20407;-57
2023/09/07 09:19:09;;;;;;;9.20;5.07;;;;;;;;;;5022955;28;20867;-57
2023/09/07 09:21:34;;;;;;;8.07;5.20;;;;;;;;;;5021197;28;20391;-57
2023/09/07 09:24:00;;;;;;;8.70;5.23;;;;;;;;;;5023129;28;20476;-57
2023/09/07 09:26:25;;;;;;;6.90;4.60;;;;;;;;;;5024544;28;20407;-57
2023/09/07 09:28:52;;;;;;;7.17;4.97;;;;;;;;;;5014829;28;20397;-57
2023/09/07 09:31:17;;;;;;;6.65;4.40;;;;;;;;;;5018054;28;20414;-57
2023/09/07 09:33:43;;;;;;;7.63;4.97;;;;;;;;;;5017935;28;20407;-57
2023/09/07 09:36:08;;;;;;;8.30;4.60;;;;;;;;;;5030097;28;20440;-57
2023/09/07 09:38:33;;;;;;;5.87;4.00;;;;;;;;;;5023540;28;20455;-57
2023/09/07 09:40:59;;;;;;;8.52;4.10;;;;;;;;;;5035019;28;20455;-57
2023/09/07 09:43:25;;;;;;;6.47;3.90;;;;;;;;;;5030389;28;20437;-57
2023/09/07 09:45:51;;;;;;;6.00;4.10;;;;;;;;;;5029729;28;20399;-57
2023/09/07 09:48:16;;;;;;;7.05;4.35;;;;;;;;;;5030385;28;20415;-57
2023/09/07 09:50:41;;;;;;;6.43;3.78;;;;;;;;;;5035824;28;20463;-57
2023/09/07 09:53:07;;;;;;;5.85;3.58;;;;;;;;;;5025234;28;20399;-57
2023/09/07 09:55:33;;;;;;;8.35;4.15;;;;;;;;;;5030567;28;20414;-57
2023/09/07 09:57:59;;;;;;;7.40;3.65;;;;;;;;;;5035874;28;20444;-57
2023/09/07 10:00:30;;;;;;;6.70;3.50;;;;;;;;;;5032224;28;20383;-57
2023/09/07 10:03:11;;;;;;;7.35;3.40;;;;;;;;;;5027599;28;20510;-57
2023/09/07 10:05:36;;;;;;;5.43;3.63;;;;;;;;;;5019199;28;20402;-57
2023/09/07 10:08:05;;;;;;;6.25;3.42;;;;;;;;;;5022469;28;20522;-57
2023/09/07 10:10:31;;;;;;;7.45;3.50;;;;;;;;;;5015440;28;20459;-57
2023/09/07 10:12:57;;;;;;;7.22;3.22;;;;;;;;;;5018437;28;20407;-57
2023/09/07 10:15:22;;;;;;;5.33;3.10;;;;;;;;;;5023569;28;20426;-57
2023/09/07 10:17:50;;;;;;;7.80;3.30;;;;;;;;;;5022546;28;20411;-57
2023/09/07 10:20:15;;;;;;;6.82;3.60;;;;;;;;;;5020166;28;20490;-57
2023/09/07 10:22:41;;;;;;;8.17;3.00;;;;;;;;;;5021727;28;20481;-57
2023/09/07 10:25:11;;;;;;;5.77;2.93;;;;;;;;;;5015971;28;20434;-58
2023/09/07 10:27:37;;;;;;;6.93;2.97;;;;;;;;;;5023118;28;20395;-57
2023/09/07 10:30:02;;;;;;;5.60;2.57;;;;;;;;;;5018701;28;20448;-58
2023/09/07 10:32:37;;;;;;;5.00;2.63;;;;;;;;;;5021101;28;20399;-57
2023/09/07 10:35:05;;;;;;;5.45;2.90;;;;;;;;;;5022833;28;20419;-58
2023/09/07 10:37:31;;;;;;;5.35;2.50;;;;;;;;;;5017920;28;20403;-57
2023/09/07 10:39:57;;;;;;;7.10;2.80;;;;;;;;;;5020269;28;20422;-58
2023/09/07 10:42:23;;;;;;;6.38;2.75;;;;;;;;;;5022510;28;20398;-58
2023/09/07 10:44:49;;;;;;;5.32;2.65;;;;;;;;;;5017490;28;20393;-58
2023/09/07 10:47:14;;;;;;;5.57;2.80;;;;;;;;;;5016874;28;20424;-58
2023/09/07 10:49:39;;;;;;;6.43;2.90;;;;;;;;;;5023064;28;20503;-58
2023/09/07 10:52:04;;;;;;;5.67;2.73;;;;;;;;;;5021967;28;20403;-58
2023/09/07 10:54:30;;;;;;;6.93;2.53;;;;;;;;;;5018887;28;20425;-58
2023/09/07 10:56:57;;;;;;;4.27;2.90;;;;;;;;;;5022849;28;20416;-58
2023/09/07 10:59:22;;;;;;;4.80;2.55;;;;;;;;;;5022308;28;20825;-58
2023/09/07 11:01:48;;;;;;;6.77;2.90;;;;;;;;;;5020793;28;20430;-58
2023/09/07 11:04:13;;;;;;;3.30;2.40;;;;;;;;;;5027797;28;20442;-59
2023/09/07 11:06:40;;;;;;;5.22;2.55;;;;;;;;;;5026721;28;20917;-58
2023/09/07 11:09:08;;;;;;;5.00;2.50;;;;;;;;;;5019753;28;20408;-59
2023/09/07 11:11:33;;;;;;;4.32;2.40;;;;;;;;;;5018960;28;20787;-59
2023/09/07 11:13:59;;;;;;;5.83;2.37;;;;;;;;;;5022324;28;20417;-58
2023/09/07 11:16:24;;;;;;;5.97;2.40;;;;;;;;;;5019861;28;20453;-58
2023/09/07 11:18:50;;;;;;;4.95;2.90;;;;;;;;;;5027612;28;20414;-58
2023/09/07 11:21:15;;;;;;;5.55;2.65;;;;;;;;;;5028035;28;20399;-59
2023/09/07 11:23:41;;;;;;;4.17;2.70;;;;;;;;;;5019009;28;20927;-58
2023/09/07 11:26:07;;;;;;;4.82;2.50;;;;;;;;;;5023371;28;20421;-59
2023/09/07 11:28:33;;;;;;;4.63;2.70;;;;;;;;;;5022442;28;20447;-58
2023/09/07 11:30:58;;;;;;;6.30;2.70;;;;;;;;;;5018601;28;20836;-58
2023/09/07 11:33:24;;;;;;;4.43;2.40;;;;;;;;;;5020653;28;20764;-59
2023/09/07 11:35:49;;;;;;;3.53;2.37;;;;;;;;;;5017062;28;20476;-59
2023/09/07 11:38:15;;;;;;;5.43;2.50;;;;;;;;;;5020782;28;20902;-59
2023/09/07 11:40:44;;;;;;;4.50;2.45;;;;;;;;;;5018764;28;20407;-58
2023/09/07 11:43:09;;;;;;;4.30;2.35;;;;;;;;;;5022088;28;20407;-59
2023/09/07 11:45:34;;;;;;;4.43;2.60;;;;;;;;;;5022242;28;20769;-58
2023/09/07 11:48:00;;;;;;;5.27;2.50;;;;;;;;;;5017185;28;20489;-58
2023/09/07 11:50:25;;;;;;;4.27;2.40;;;;;;;;;;5021904;28;20399;-58
2023/09/07 11:52:50;;;;;;;4.77;2.20;;;;;;;;;;5022951;28;20411;-58
2023/09/07 11:55:16;;;;;;;4.83;2.43;;;;;;;;;;5018894;28;20407;-58
2023/09/07 11:57:41;;;;;;;5.87;2.40;;;;;;;;;;5020528;28;20491;-58
2023/09/07 12:00:10;;;;;;;4.50;2.17;;;;;;;;;;5023233;28;20412;-59
2023/09/07 12:02:36;;;;;;;5.95;2.70;;;;;;;;;;5024734;28;20407;-58
2023/09/07 12:05:03;;;;;;;6.75;2.70;;;;;;;;;;5021183;28;20472;-59
2023/09/07 12:07:28;;;;;;;4.18;2.50;;;;;;;;;;5025710;28;20763;-58
2023/09/07 12:09:56;;;;;;;6.10;2.67;;;;;;;;;;5023160;28;20964;-58
2023/09/07 12:12:21;;;;;;;4.57;2.47;;;;;;;;;;5021317;28;20459;-58
2023/09/07 12:14:47;;;;;;;4.63;2.50;;;;;;;;;;5024442;28;20835;-58
2023/09/07 12:17:12;;;;;;;4.43;2.43;;;;;;;;;;5023928;28;20802;-58
2023/09/07 12:19:37;;;;;;;4.87;2.40;;;;;;;;;;5023566;28;20410;-58
2023/09/07 12:22:03;;;;;;;4.27;2.37;;;;;;;;;;5022010;28;20921;-59
2023/09/07 12:24:28;;;;;;;5.60;2.40;;;;;;;;;;5025363;28;20866;-58
2023/09/07 12:26:54;;;;;;;4.53;2.40;;;;;;;;;;5026084;28;20438;-58
2023/09/07 12:29:20;;;;;;;4.70;2.43;;;;;;;;;;5019505;28;20407;-58
2023/09/07 12:31:45;;;;;;;3.97;2.50;;;;;;;;;;5024959;28;20419;-58
2023/09/07 12:34:10;;;;;;;5.95;2.70;;;;;;;;;;5025211;28;20552;-59
2023/09/07 12:36:36;;;;;;;6.20;2.53;;;;;;;;;;5022428;28;20414;-58
2023/09/07 12:39:01;;;;;;;5.03;2.70;;;;;;;;;;5022288;28;20807;-60
2023/09/07 12:41:27;;;;;;;4.43;2.50;;;;;;;;;;5025282;28;20391;-58
2023/09/07 12:43:53;;;;;;;4.43;2.60;;;;;;;;;;5022403;28;20399;-58
2023/09/07 12:46:18;;;;;;;4.27;2.60;;;;;;;;;;5020249;28;20444;-59
2023/09/07 12:48:43;;;;;;;5.00;2.70;;;;;;;;;;5025456;28;20419;-58
2023/09/07 12:51:09;;;;;;;4.37;2.50;;;;;;;;;;5024243;28;20743;-59
2023/09/07 12:53:34;;;;;;;5.85;2.97;;;;;;;;;;5020747;28;20457;-58
2023/09/07 12:56:01;;;;;;;9.23;2.60;;;;;;;;;;5024949;28;20785;-58
2023/09/07 12:58:26;;;;;;;5.47;2.90;;;;;;;;;;5024021;28;20408;-58
2023/09/07 13:00:52;;;;;;;4.77;2.63;;;;;;;;;;5022299;28;20434;-58
2023/09/07 13:03:17;;;;;;;6.90;2.80;;;;;;;;;;5022068;28;20420;-59
2023/09/07 13:05:43;;;;;;;5.17;3.00;;;;;;;;;;5024050;28;20407;-58
2023/09/07 13:08:08;;;;;;;6.00;2.77;;;;;;;;;;5023143;28;20407;-58
2023/09/07 13:10:34;;;;;;;3.83;2.63;;;;;;;;;;5019790;28;20396;-58
2023/09/07 13:12:59;;;;;;;4.30;2.60;;;;;;;;;;5024196;28;20407;-58
2023/09/07 13:15:24;;;;;;;6.73;3.00;;;;;;;;;;5024478;28;20391;-59
2023/09/07 13:17:50;;;;;;;4.73;2.40;;;;;;;;;;5022519;28;20418;-59
2023/09/07 13:20:16;;;;;;;10.37;3.00;;;;;;;;;;5030797;28;20909;-59
2023/09/07 13:22:41;;;;;;;5.07;2.47;;;;;;;;;;5022873;28;21242;-58
2023/09/07 13:25:07;;;;;;;4.70;2.60;;;;;;;;;;5025505;28;20404;-59
2023/09/07 13:27:32;;;;;;;3.60;2.50;;;;;;;;;;5021110;28;20748;-58
2023/09/07 13:29:58;;;;;;;5.28;2.80;;;;;;;;;;5021856;28;20490;-59
2023/09/07 13:32:24;;;;;;;5.03;2.50;;;;;;;;;;5008694;28;21415;-58
2023/09/07 13:34:50;;;;;;;6.07;2.90;;;;;;;;;;4986789;28;20418;-58
2023/09/07 13:37:15;;;;;;;6.03;2.87;;;;;;;;;;4990509;28;20797;-58
2023/09/07 13:39:40;;;;;;;4.55;2.50;;;;;;;;;;4987329;28;20492;-58
2023/09/07 13:42:05;;;;;;;6.00;2.50;;;;;;;;;;4992439;28;20415;-59
2023/09/07 13:44:31;;;;;;;4.37;2.67;;;;;;;;;;4999620;28;20439;-58
2023/09/07 13:46:56;;;;;;;4.83;2.90;;;;;;;;;;4993368;28;20764;-58
2023/09/07 13:49:21;;;;;;;5.07;2.50;;;;;;;;;;4991944;28;20430;-58
2023/09/07 13:51:46;;;;;;;4.93;2.47;;;;;;;;;;4995932;28;20449;-58
2023/09/07 13:54:12;;;;;;;5.47;2.63;;;;;;;;;;4994626;28;20418;-58
2023/09/07 13:56:37;;;;;;;5.30;2.57;;;;;;;;;;4987992;28;20430;-58
2023/09/07 13:59:02;;;;;;;6.63;2.60;;;;;;;;;;4986740;28;20410;-58
2023/09/07 14:01:28;;;;;;;4.40;2.80;;;;;;;;;;4991785;28;20449;-58
2023/09/07 14:03:53;;;;;;;7.00;2.90;;;;;;;;;;4990227;28;20407;-58
2023/09/07 14:06:22;;;;;;;4.27;2.60;;;;;;;;;;4992387;28;20415;-58
2023/09/07 14:08:48;;;;;;;7.75;2.63;;;;;;;;;;4995763;28;20406;-58
2023/09/07 14:11:13;;;;;;;4.10;2.65;;;;;;;;;;4993429;28;20513;-58
2023/09/07 14:13:39;;;;;;;4.00;2.65;;;;;;;;;;4992632;28;20411;-58
2023/09/07 14:16:04;;;;;;;5.15;2.60;;;;;;;;;;4991667;28;20813;-58
2023/09/07 14:18:29;;;;;;;4.77;2.70;;;;;;;;;;4991897;28;20406;-58
2023/09/07 14:21:01;;;;;;;5.87;2.50;;;;;;;;;;4993077;28;20428;-58
2023/09/07 14:23:26;;;;;;;5.17;2.70;;;;;;;;;;4983333;28;20386;-58
2023/09/07 14:25:52;;;;;;;5.70;2.77;;;;;;;;;;4993071;28;20906;-58
2023/09/07 14:28:17;;;;;;;4.73;2.50;;;;;;;;;;5000994;28;20914;-58
2023/09/07 14:30:42;;;;;;;5.10;2.70;;;;;;;;;;4991286;28;21375;-58
2023/09/07 14:33:08;;;;;;;6.30;2.70;;;;;;;;;;4994046;28;20403;-58